KORF/ORF METAR and TAF weather

Enter ICAO airport designator
Station Type Date Time Source
KORF METAR 2019/04/19 09:51 UTC NOAA

KORF 190951Z 18013KT 10SM SCT050 SCT060 21/16 A2985 RMK AO2 SLP106 T02110161


Station Type Date Time Source
KORF Decoded METAR 2019/04/19 09:51 UTC NOAA

NORFOLK INTERNATIONAL AIRPORT , VA, United States (KORF) 36-54N 076-12W 14M
Apr 19, 2019 - 05:51 AM EDT / 2019.04.19 0951 UTC
Wind: from the S (180 degrees) at 15 MPH (13 KT):0
Visibility: 10 mile(s):0
Sky conditions: partly cloudy
Temperature: 70.0 F (21.1 C)
Dew Point: 61.0 F (16.1 C)
Relative Humidity: 73%
Pressure (altimeter): 29.85 in. Hg (1010 hPa)
ob: KORF 190951Z 18013KT 10SM SCT050 SCT060 21/16 A2985 RMK AO2 SLP106 T02110161
cycle: 10

Station Type Date Time Source
KORF TAF 2019/04/19 10:24 UTC NOAA

TAF
AMD KORF 191021Z 1910/2006 18013KT P6SM SCT050 SCT060
FM191600 19021G33KT P6SM -SHRA SCT025 OVC050
FM200400 17020G30KT 5SM TSRA OVC020CB

Example: see airport list